createdAt,value
2019-02-24T00:00:28.793Z,72.56
2019-02-24T00:01:35.148Z,73.01
2019-02-24T00:02:38.294Z,73.21
2019-02-24T00:03:45.719Z,73.21
2019-02-24T00:06:26.357Z,73.05
2019-02-24T00:07:29.230Z,72.98
2019-02-24T00:08:32.020Z,73.26
2019-02-24T00:09:35.170Z,73.26
2019-02-24T00:10:37.971Z,73.26
2019-02-24T00:11:40.784Z,73.60
2019-02-24T00:12:43.787Z,73.54
2019-02-24T00:13:46.625Z,73.53
2019-02-24T00:15:17.163Z,73.66
2019-02-24T00:16:37.233Z,73.18
2019-02-24T00:17:47.835Z,73.35
2019-02-24T00:23:31.762Z,74.20
2019-02-24T00:24:36.707Z,74.44
2019-02-24T00:25:40.007Z,73.96
2019-02-24T00:26:44.264Z,74.69
2019-02-24T00:27:47.041Z,74.65
2019-02-24T00:28:49.852Z,74.38
2019-02-24T00:29:52.687Z,74.33
2019-02-24T00:30:57.843Z,74.28
2019-02-24T00:32:03.924Z,73.88
2019-02-24T00:34:47.415Z,73.93
2019-02-24T00:35:50.495Z,73.98
2019-02-24T00:36:53.311Z,73.97
2019-02-24T00:37:56.140Z,73.97
2019-02-24T00:38:58.949Z,73.56
2019-02-24T00:40:03.569Z,73.94
2019-02-24T00:41:09.287Z,73.51
2019-02-24T00:42:12.475Z,73.82
2019-02-24T00:43:15.196Z,73.88
2019-02-24T00:44:20.124Z,73.88
2019-02-24T00:45:22.874Z,73.68
2019-02-24T00:46:25.672Z,73.40
2019-02-24T00:47:28.508Z,73.68
2019-02-24T00:48:31.305Z,73.69
2019-02-24T00:49:34.107Z,73.69
2019-02-24T00:50:36.892Z,73.35
2019-02-24T00:51:39.806Z,73.57
2019-02-24T00:52:42.579Z,73.57
2019-02-24T00:53:45.384Z,73.37
2019-02-24T00:54:48.412Z,73.37
2019-02-24T00:55:51.176Z,73.30
2019-02-24T00:56:53.995Z,73.30
2019-02-24T00:57:57.275Z,72.62
2019-02-24T00:59:00.234Z,72.45
2019-02-24T01:00:09.230Z,72.84
2019-02-24T01:01:30.372Z,72.64
2019-02-24T01:02:50.847Z,72.64
2019-02-24T01:03:54.164Z,73.74
2019-02-24T01:04:56.932Z,73.54
2019-02-24T01:06:02.724Z,73.75
2019-02-24T01:07:05.535Z,73.52
2019-02-24T01:08:08.614Z,73.33
2019-02-24T01:09:13.309Z,73.33
2019-02-24T01:10:19.017Z,73.20
2019-02-24T01:11:21.755Z,73.28
2019-02-24T01:12:28.917Z,73.31
2019-02-24T01:13:34.322Z,73.26
2019-02-24T01:14:41.804Z,73.26
2019-02-24T01:16:03.337Z,72.89
2019-02-24T01:17:07.664Z,72.24
2019-02-24T01:18:10.514Z,72.34
2019-02-24T01:19:13.377Z,71.81
2019-02-24T01:20:16.516Z,71.81
2019-02-24T01:21:19.356Z,71.62
2019-02-24T01:22:36.607Z,71.33
2019-02-24T01:23:39.698Z,71.06
2019-02-24T01:24:42.694Z,71.08
2019-02-24T01:25:45.823Z,70.99
2019-02-24T01:26:50.824Z,70.80
2019-02-24T01:27:53.983Z,70.21
2019-02-24T01:28:56.788Z,70.51
2019-02-24T01:29:59.617Z,70.32
2019-02-24T01:31:02.423Z,70.47
2019-02-24T01:32:05.308Z,70.37
2019-02-24T01:33:08.399Z,71.18
2019-02-24T01:34:13.660Z,71.63
2019-02-24T01:35:16.463Z,71.90
2019-02-24T01:36:19.265Z,72.64
2019-02-24T01:37:22.078Z,72.97
2019-02-24T01:38:24.844Z,73.22
2019-02-24T01:39:28.167Z,73.31
2019-02-24T01:40:30.923Z,73.31
2019-02-24T01:41:33.745Z,73.31
2019-02-24T01:42:36.626Z,73.27
2019-02-24T01:43:39.540Z,73.32
2019-02-24T01:44:42.319Z,73.62
2019-02-24T01:45:45.062Z,73.89
2019-02-24T01:46:47.834Z,73.89
2019-02-24T01:47:50.729Z,73.41
2019-02-24T01:48:53.434Z,73.25
2019-02-24T01:49:56.663Z,73.57
2019-02-24T01:50:59.513Z,72.97
2019-02-24T01:52:04.566Z,73.26
2019-02-24T01:53:07.304Z,73.26
2019-02-24T01:54:10.481Z,72.13
2019-02-24T01:55:14.638Z,72.08
2019-02-24T03:03:47.564Z,74.31
2019-02-24T03:04:50.703Z,74.27
2019-02-24T03:06:15.668Z,74.27
2019-02-24T03:07:39.482Z,74.45
2019-02-24T03:08:55.888Z,74.76
2019-02-24T03:09:58.348Z,74.57
2019-02-24T03:11:01.236Z,74.67
2019-02-24T03:12:04.059Z,74.76
2019-02-24T03:13:08.223Z,74.41
2019-02-24T03:14:13.673Z,74.41
2019-02-24T03:15:17.806Z,74.58
2019-02-24T03:16:33.741Z,74.70
2019-02-24T03:17:39.081Z,74.70
2019-02-24T03:18:44.002Z,74.65
2019-02-24T03:19:46.769Z,74.61
2019-02-24T03:20:52.078Z,74.42
2019-02-24T03:21:59.421Z,74.05
2019-02-24T03:23:02.197Z,74.02
2019-02-24T03:24:06.335Z,73.74
2019-02-24T03:25:09.517Z,74.24
2019-02-24T03:26:12.346Z,73.61
2019-02-24T03:27:16.222Z,72.86
2019-02-24T03:28:19.298Z,72.78
2019-02-24T03:29:24.244Z,72.16
2019-02-24T03:30:27.652Z,71.92
2019-02-24T03:31:30.406Z,72.00
2019-02-24T03:32:36.165Z,72.10
2019-02-24T03:33:50.188Z,72.10
2019-02-24T03:34:52.989Z,71.60
2019-02-24T03:36:16.060Z,71.60
2019-02-24T03:37:19.132Z,71.04
2019-02-24T03:38:23.956Z,71.04
2019-02-24T03:39:26.726Z,70.77
2019-02-24T03:40:29.815Z,70.84
2019-02-24T03:41:34.292Z,70.84
2019-02-24T03:48:22.674Z,71.61
2019-02-24T03:51:31.114Z,73.17
2019-02-24T03:52:33.639Z,72.67
2019-02-24T03:53:37.951Z,72.30
2019-02-24T03:56:24.346Z,72.72
2019-02-24T03:57:30.485Z,72.94
2019-02-24T04:00:29.080Z,73.64
2019-02-24T04:04:25.932Z,73.71
2019-02-24T04:05:30.780Z,71.34
2019-02-24T04:06:55.232Z,71.34
2019-02-24T04:07:58.042Z,69.92
2019-02-24T04:09:00.877Z,69.81
2019-02-24T04:10:05.062Z,69.59
2019-02-24T04:11:09.758Z,69.46
2019-02-24T04:12:13.719Z,69.26
2019-02-24T04:13:18.217Z,69.26
2019-02-24T04:14:23.395Z,70.03
2019-02-24T04:15:26.175Z,70.31
2019-02-24T04:16:31.672Z,70.71
2019-02-24T04:17:34.739Z,70.71
2019-02-24T04:18:45.710Z,70.74
2019-02-24T04:19:49.755Z,71.34
2019-02-24T04:20:53.474Z,71.61
2019-02-24T04:21:56.691Z,72.20
2019-02-24T04:22:59.454Z,72.20
2019-02-24T04:24:02.881Z,72.69
2019-02-24T04:25:05.612Z,72.69
2019-02-24T04:26:09.405Z,73.28
2019-02-24T04:27:17.080Z,73.28
2019-02-24T04:28:26.533Z,73.70
2019-02-24T04:29:30.406Z,73.38
2019-02-24T04:30:33.526Z,73.20
2019-02-24T04:31:36.250Z,73.12
2019-02-24T04:32:56.596Z,72.95
2019-02-24T04:33:59.383Z,73.02
2019-02-24T04:35:03.917Z,73.02
2019-02-24T04:36:08.035Z,73.25
2019-02-24T04:37:12.304Z,73.73
2019-02-24T04:38:17.018Z,73.85
2019-02-24T04:39:23.406Z,73.70
2019-02-24T04:40:26.116Z,73.70
2019-02-24T04:41:48.910Z,73.02
2019-02-24T04:42:54.302Z,73.02
2019-02-24T04:43:58.377Z,72.74
2019-02-24T04:45:04.161Z,72.62
2019-02-24T04:46:11.244Z,72.37
2019-02-24T04:47:18.516Z,72.00
2019-02-24T04:48:25.139Z,72.00
2019-02-24T04:49:36.082Z,70.97
2019-02-24T04:50:39.743Z,70.88
2019-02-24T04:51:42.791Z,70.74
2019-02-24T04:52:51.657Z,70.30
2019-02-24T04:53:55.932Z,70.50
2019-02-24T04:54:59.849Z,70.50
2019-02-24T04:56:07.105Z,71.37
2019-02-24T04:57:09.932Z,71.12
2019-02-24T04:58:12.685Z,71.51
2019-02-24T04:59:17.500Z,71.51
2019-02-24T05:00:22.935Z,71.09
2019-02-24T05:01:35.510Z,71.11
2019-02-24T05:02:38.236Z,70.76
2019-02-24T05:03:43.994Z,71.20
2019-02-24T05:04:51.835Z,71.15
2019-02-24T05:05:55.740Z,70.77
2019-02-24T05:07:00.647Z,70.64
2019-02-24T05:08:09.973Z,70.64
2019-02-24T05:09:23.452Z,70.04
2019-02-24T05:10:39.590Z,69.43
2019-02-24T05:11:39.863Z,69.48
2019-02-24T05:12:53.085Z,69.48
2019-02-24T05:14:01.234Z,70.25
2019-02-24T05:15:05.633Z,70.23
2019-02-24T05:16:25.351Z,70.23
2019-02-24T05:17:30.283Z,71.00
2019-02-24T05:18:37.665Z,71.71
2019-02-24T05:19:42.173Z,72.44
2019-02-24T05:20:48.446Z,72.78
2019-02-24T05:21:52.172Z,72.68
2019-02-24T05:22:59.974Z,72.83
2019-02-24T05:24:09.411Z,72.92
2019-02-24T05:25:16.180Z,72.60
2019-02-24T05:26:19.079Z,72.99
2019-02-24T05:30:14.274Z,72.19
2019-02-24T05:33:51.461Z,70.23
2019-02-24T05:36:32.289Z,68.87
2019-02-24T05:37:36.694Z,68.78
2019-02-24T05:38:44.250Z,68.19
2019-02-24T05:40:01.593Z,68.19
2019-02-24T05:41:28.013Z,68.33
2019-02-24T05:43:55.050Z,68.23
2019-02-24T05:47:19.913Z,68.51
2019-02-24T05:48:58.110Z,68.33
2019-02-24T05:50:01.227Z,68.33
2019-02-24T05:51:28.714Z,68.80
2019-02-24T05:52:38.259Z,68.72
2019-02-24T05:55:32.740Z,68.87
2019-02-24T05:58:28.226Z,69.41
2019-02-24T06:00:58.604Z,69.53
2019-02-24T06:02:04.949Z,69.41
2019-02-24T06:03:08.770Z,69.13
2019-02-24T06:05:48.215Z,69.81
2019-02-24T06:07:29.454Z,69.55
2019-02-24T06:08:34.255Z,69.55
2019-02-24T06:09:59.424Z,69.47
2019-02-24T06:11:28.230Z,69.47
2019-02-24T06:12:31.298Z,70.35
2019-02-24T06:13:34.156Z,71.19
2019-02-24T06:14:37.184Z,71.22
2019-02-24T06:15:43.594Z,71.50
2019-02-24T06:16:50.227Z,71.19
2019-02-24T06:17:53.077Z,71.19
2019-02-24T06:18:56.035Z,70.57
2019-02-24T06:20:03.013Z,70.34
2019-02-24T06:21:06.815Z,70.47
2019-02-24T06:22:09.880Z,70.47
2019-02-24T06:23:14.803Z,71.63
2019-02-24T06:24:19.599Z,71.58
2019-02-24T06:25:25.886Z,71.56
2019-02-24T06:26:30.283Z,70.82
2019-02-24T06:27:37.147Z,70.65
2019-02-24T06:28:39.884Z,70.65
2019-02-24T06:29:42.999Z,70.34
2019-02-24T06:44:07.314Z,71.10
2019-02-24T06:45:10.468Z,70.72
2019-02-24T06:46:17.416Z,71.22
2019-02-24T06:47:23.241Z,71.27
2019-02-24T06:48:38.501Z,71.60
2019-02-24T06:49:42.584Z,70.52
2019-02-24T06:51:02.457Z,70.71
2019-02-24T06:52:08.390Z,70.57
2019-02-24T06:53:13.446Z,70.68
2019-02-24T06:54:17.776Z,70.54
2019-02-24T06:55:28.525Z,70.08
2019-02-24T06:56:33.856Z,70.08
2019-02-24T06:57:37.224Z,69.92
2019-02-24T06:58:46.075Z,69.53
2019-02-24T06:59:48.604Z,69.45
2019-02-24T07:00:55.196Z,68.23
2019-02-24T07:02:10.634Z,67.89
2019-02-24T07:03:19.899Z,67.04
2019-02-24T07:04:23.599Z,66.43
2019-02-24T07:05:26.719Z,65.50
2019-02-24T07:07:51.941Z,64.87
2019-02-24T07:09:27.499Z,64.00
2019-02-24T07:10:33.343Z,63.94
2019-02-24T07:12:10.533Z,63.94
2019-02-24T07:13:29.200Z,62.95
2019-02-24T07:14:26.407Z,62.79
2019-02-24T07:17:29.203Z,63.12
2019-02-24T07:18:37.474Z,62.95
2019-02-24T07:19:44.511Z,62.88
2019-02-24T07:20:51.491Z,62.81
2019-02-24T07:21:59.074Z,62.42
2019-02-24T07:23:03.881Z,61.79
2019-02-24T07:24:07.336Z,60.81
2019-02-24T07:25:10.410Z,60.81
2019-02-24T07:26:14.688Z,60.56
2019-02-24T07:27:17.575Z,60.63
2019-02-24T07:28:20.863Z,60.36
2019-02-24T07:29:25.215Z,60.06
2019-02-24T07:30:31.494Z,59.95
2019-02-24T07:31:40.700Z,59.95
2019-02-24T07:33:00.775Z,58.98
2019-02-24T07:34:03.356Z,58.98
2019-02-24T07:35:06.247Z,57.89
2019-02-24T07:36:11.065Z,58.22
2019-02-24T07:37:18.314Z,58.22
2019-02-24T07:38:34.620Z,57.84
2019-02-24T07:39:38.715Z,56.93
2019-02-24T07:40:49.315Z,55.72
2019-02-24T07:42:15.004Z,55.72
2019-02-24T07:43:22.684Z,53.35
2019-02-24T07:44:48.897Z,53.35
2019-02-24T07:45:51.954Z,52.82
2019-02-24T07:46:58.307Z,52.74
2019-02-24T07:48:22.340Z,53.13
2019-02-24T07:49:31.047Z,53.03
2019-02-24T07:50:34.305Z,52.28
2019-02-24T07:51:38.623Z,51.39
2019-02-24T07:52:41.954Z,51.39
2019-02-24T07:53:50.270Z,51.18
2019-02-24T07:54:53.016Z,50.93
2019-02-24T07:55:55.833Z,50.61
2019-02-24T07:57:01.154Z,50.02
2019-02-24T07:58:07.304Z,49.45
2019-02-24T07:59:13.015Z,49.14
2019-02-24T08:00:15.796Z,49.43
2019-02-24T08:01:21.044Z,49.94
2019-02-24T08:02:24.267Z,50.15
2019-02-24T08:03:27.416Z,50.15
2019-02-24T08:04:30.250Z,50.33
2019-02-24T08:05:33.198Z,48.84
2019-02-24T08:06:39.488Z,50.13
2019-02-24T08:07:42.383Z,49.65
2019-02-24T08:08:45.263Z,49.65
2019-02-24T08:09:51.830Z,49.90
2019-02-24T08:10:58.021Z,49.90
2019-02-24T08:12:02.394Z,49.71
2019-02-24T08:13:05.393Z,49.28
2019-02-24T08:14:09.384Z,49.28
2019-02-24T08:15:16.995Z,47.97
2019-02-24T08:16:23.814Z,47.90
2019-02-24T08:17:27.252Z,47.90
2019-02-24T08:18:31.215Z,47.18
2019-02-24T08:19:39.374Z,47.18
2019-02-24T08:20:42.512Z,47.25
2019-02-24T08:21:45.721Z,47.55
2019-02-24T08:22:49.040Z,47.55
2019-02-24T08:23:52.541Z,47.19
2019-02-24T08:24:56.206Z,47.00
2019-02-24T08:25:59.266Z,46.81
2019-02-24T08:27:03.417Z,46.81
2019-02-24T08:28:07.011Z,46.53
2019-02-24T08:29:15.874Z,46.53
2019-02-24T08:30:18.641Z,46.58
2019-02-24T08:31:26.739Z,46.33
2019-02-24T08:32:31.389Z,45.26
2019-02-24T08:33:37.397Z,45.34
2019-02-24T08:34:47.927Z,44.78
2019-02-24T08:35:50.855Z,44.84
2019-02-24T08:37:00.194Z,44.97
2019-02-24T08:38:12.435Z,44.94
2019-02-24T08:39:21.292Z,45.25
2019-02-24T08:40:24.312Z,45.15
2019-02-24T08:41:27.447Z,45.15
2019-02-24T08:42:30.216Z,44.54
2019-02-24T08:43:35.420Z,44.49
2019-02-24T08:44:38.279Z,44.18
2019-02-24T08:45:41.162Z,43.52
2019-02-24T08:46:52.578Z,43.25
2019-02-24T08:48:03.478Z,42.19
2019-02-24T08:49:03.877Z,42.02
2019-02-24T08:50:06.824Z,41.68
2019-02-24T08:51:10.039Z,41.38
2019-02-24T08:52:13.684Z,41.71
2019-02-24T08:53:16.883Z,41.71
2019-02-24T08:54:20.417Z,39.23
2019-02-24T08:55:26.631Z,39.23
2019-02-24T08:56:31.931Z,38.70
2019-02-24T08:57:41.869Z,38.70
2019-02-24T08:58:47.777Z,38.80
2019-02-24T09:00:03.658Z,38.30
2019-02-24T09:01:10.880Z,38.61
2019-02-24T09:02:22.690Z,38.14
2019-02-24T09:03:25.541Z,38.14
2019-02-24T09:04:29.697Z,37.07
2019-02-24T09:05:32.737Z,36.93
2019-02-24T09:08:30.723Z,35.20
2019-02-24T09:09:35.771Z,33.65
2019-02-24T09:10:43.067Z,32.98
2019-02-24T09:12:04.132Z,32.86
2019-02-24T09:13:57.295Z,32.86
2019-02-24T09:14:38.249Z,32.76
2019-02-24T09:15:44.038Z,30.43
2019-02-24T09:16:47.485Z,30.23
2019-02-24T09:17:51.325Z,0.00
2019-02-24T09:18:59.267Z,0.00
2019-02-24T09:20:04.638Z,29.67
2019-02-24T09:21:10.319Z,27.60
2019-02-24T09:22:14.365Z,28.34
2019-02-24T09:23:38.645Z,28.35
2019-02-24T09:26:19.568Z,28.70
2019-02-24T09:27:28.743Z,28.70
2019-02-24T09:28:31.594Z,28.32
2019-02-24T09:29:35.550Z,28.38
2019-02-24T09:30:41.761Z,28.21
2019-02-24T09:31:53.198Z,28.21
2019-02-24T09:33:03.810Z,27.58
2019-02-24T09:34:11.153Z,26.96
2019-02-24T09:35:24.349Z,26.68
2019-02-24T09:36:36.982Z,25.92
2019-02-24T09:37:45.965Z,26.54
2019-02-24T09:38:48.914Z,26.54
2019-02-24T09:39:54.176Z,26.22
2019-02-24T09:40:58.964Z,26.22
2019-02-24T09:42:10.194Z,25.68
2019-02-24T09:43:26.106Z,25.20
2019-02-24T09:44:29.967Z,25.15
2019-02-24T09:45:33.277Z,24.50
2019-02-24T09:46:36.063Z,24.50
2019-02-24T09:47:46.384Z,25.01
2019-02-24T09:48:50.137Z,24.18
2019-02-24T09:50:07.650Z,23.35
2019-02-24T09:51:13.233Z,22.93
2019-02-24T09:52:18.009Z,22.80
2019-02-24T09:53:31.214Z,22.80
2019-02-24T09:54:40.913Z,22.09
2019-02-24T09:55:44.641Z,21.69
2019-02-24T09:56:48.179Z,21.86
2019-02-24T09:57:53.304Z,21.21
2019-02-24T09:58:56.517Z,21.72
2019-02-24T10:00:02.355Z,21.15
2019-02-24T10:01:10.671Z,21.74
2019-02-24T10:02:10.647Z,22.41
2019-02-24T10:03:18.794Z,21.07
2019-02-24T10:04:33.607Z,21.07
2019-02-24T10:05:52.906Z,21.33
2019-02-24T10:06:58.387Z,20.31
2019-02-24T10:08:02.643Z,20.70
2019-02-24T10:09:05.834Z,20.70
2019-02-24T10:10:21.684Z,20.40
2019-02-24T10:11:23.864Z,20.33
2019-02-24T10:12:29.494Z,20.25
2019-02-24T10:13:32.997Z,19.89
2019-02-24T10:14:37.512Z,19.89
2019-02-24T10:15:42.841Z,19.30
2019-02-24T10:16:49.269Z,19.30
2019-02-24T10:17:52.178Z,19.53
2019-02-24T10:18:58.950Z,19.60
2019-02-24T10:20:03.451Z,19.60
2019-02-24T10:21:12.647Z,19.66
2019-02-24T10:22:20.689Z,19.15
2019-02-24T10:23:27.026Z,19.22
2019-02-24T10:24:30.112Z,18.68
2019-02-24T10:25:33.519Z,18.68
2019-02-24T10:26:37.004Z,18.28
2019-02-24T10:28:14.371Z,18.75
2019-02-24T10:29:26.838Z,18.75
2019-02-24T10:30:34.104Z,18.25
2019-02-24T10:31:43.189Z,18.52
2019-02-24T10:32:46.298Z,18.04
2019-02-24T10:33:49.507Z,18.19
2019-02-24T10:34:57.039Z,18.19
2019-02-24T10:36:00.289Z,19.29
2019-02-24T10:37:18.109Z,19.29
2019-02-24T10:38:21.953Z,18.81
2019-02-24T10:39:29.652Z,18.81
2019-02-24T10:40:29.372Z,19.23
2019-02-24T10:41:32.493Z,19.23
2019-02-24T10:42:38.805Z,17.96
2019-02-24T10:43:44.112Z,17.92
2019-02-24T10:44:47.667Z,19.05
2019-02-24T10:45:55.589Z,16.90
2019-02-24T10:46:59.462Z,16.90
2019-02-24T10:48:13.449Z,16.92
2019-02-24T10:50:13.813Z,17.36
2019-02-24T10:51:39.482Z,17.63
2019-02-24T10:52:41.950Z,17.13
2019-02-24T10:53:45.755Z,16.82
2019-02-24T10:54:49.195Z,16.82
2019-02-24T10:55:52.069Z,16.15
2019-02-24T10:56:54.858Z,16.15
2019-02-24T10:57:57.668Z,16.51
2019-02-24T10:59:00.525Z,16.61
2019-02-24T11:00:03.437Z,16.47
2019-02-24T11:01:13.365Z,17.57
2019-02-24T11:02:16.638Z,17.18
2019-02-24T11:03:22.636Z,17.18
2019-02-24T11:04:34.142Z,17.81
2019-02-24T11:05:37.478Z,17.36
2019-02-24T11:06:42.054Z,17.36
2019-02-24T11:07:49.723Z,17.61
2019-02-24T11:08:52.487Z,17.47
2019-02-24T11:10:04.100Z,17.27
2019-02-24T11:11:08.598Z,17.27
2019-02-24T11:12:23.168Z,17.25
2019-02-24T11:13:36.628Z,17.60
2019-02-24T11:14:48.973Z,16.83
2019-02-24T11:15:53.250Z,17.06
2019-02-24T11:16:56.104Z,17.43
2019-02-24T11:18:03.670Z,16.64
2019-02-24T11:19:06.743Z,17.61
2019-02-24T11:20:10.261Z,16.16
2019-02-24T11:21:16.279Z,16.16
2019-02-24T11:22:21.329Z,16.38
2019-02-24T11:23:24.276Z,16.38
2019-02-24T11:24:37.640Z,16.14
2019-02-24T11:25:44.191Z,15.83
2019-02-24T11:26:45.899Z,15.83
2019-02-24T11:27:54.537Z,16.64
2019-02-24T11:29:06.388Z,15.77
2019-02-24T11:43:04.963Z,15.59
2019-02-24T11:44:14.673Z,15.86
2019-02-24T11:45:18.465Z,15.41
2019-02-24T11:46:35.434Z,15.88
2019-02-24T11:47:38.366Z,15.19
2019-02-24T11:48:45.980Z,15.94
2019-02-24T11:49:54.784Z,16.23
2019-02-24T11:51:13.920Z,15.64
2019-02-24T11:55:48.974Z,16.76
2019-02-24T11:56:57.314Z,16.84
2019-02-24T11:58:18.383Z,17.16
2019-02-24T11:59:28.355Z,16.89
2019-02-24T12:02:22.326Z,16.87
2019-02-24T12:03:22.504Z,17.05
2019-02-24T12:04:26.259Z,16.74
2019-02-24T12:05:38.330Z,17.24
2019-02-24T12:06:45.629Z,17.24
2019-02-24T12:07:51.901Z,17.15
2019-02-24T12:09:05.222Z,17.15
2019-02-24T12:10:10.775Z,16.46
2019-02-24T12:11:23.013Z,16.81
2019-02-24T12:12:36.148Z,16.43
2019-02-24T12:13:39.337Z,16.65
2019-02-24T12:14:45.642Z,16.65
2019-02-24T12:15:54.977Z,16.95
2019-02-24T12:16:58.000Z,16.41
2019-02-24T12:18:00.890Z,16.41
2019-02-24T12:19:03.760Z,16.69
2019-02-24T12:20:33.468Z,16.96
2019-02-24T12:21:47.965Z,16.24
2019-02-24T12:22:55.326Z,17.01
2019-02-24T12:24:11.328Z,16.17
2019-02-24T12:25:56.833Z,16.05
2019-02-24T12:27:07.571Z,16.65
2019-02-24T12:28:15.596Z,16.65
2019-02-24T12:29:28.972Z,16.88
2019-02-24T12:30:43.467Z,16.29
2019-02-24T12:31:56.544Z,16.99
2019-02-24T12:32:59.176Z,16.87
2019-02-24T12:34:03.046Z,16.90
2019-02-24T12:35:15.513Z,15.95
2019-02-24T12:36:26.425Z,16.32
2019-02-24T12:37:36.946Z,15.96
2019-02-24T12:39:04.294Z,16.01
2019-02-24T12:40:09.598Z,15.53
2019-02-24T12:41:36.111Z,16.54
2019-02-24T12:43:03.817Z,16.32
2019-02-24T12:44:13.159Z,15.65
2019-02-24T12:45:17.004Z,16.00
2019-02-24T12:46:25.408Z,15.73
2019-02-24T12:47:52.918Z,16.00
2019-02-24T12:48:56.909Z,15.75
2019-02-24T12:50:03.451Z,15.75
2019-02-24T12:51:05.531Z,15.70
2019-02-24T12:52:27.059Z,15.70
2019-02-24T12:53:32.185Z,15.14
2019-02-24T12:54:37.820Z,14.84
2019-02-24T12:55:40.775Z,14.84
2019-02-24T12:56:43.558Z,15.45
2019-02-24T12:57:53.378Z,15.34
2019-02-24T12:58:52.596Z,15.06
2019-02-24T13:00:13.386Z,14.39
2019-02-24T13:01:16.190Z,15.21
2019-02-24T13:02:21.474Z,15.21
2019-02-24T13:03:39.315Z,14.69
2019-02-24T13:04:42.300Z,14.98
2019-02-24T13:06:03.367Z,15.48
2019-02-24T13:07:07.654Z,15.48
2019-02-24T13:08:22.449Z,15.17
2019-02-24T13:09:25.262Z,15.17
2019-02-24T13:10:32.377Z,13.69
2019-02-24T13:12:05.669Z,14.22
2019-02-24T13:13:02.738Z,14.54
2019-02-24T13:14:10.613Z,14.35
2019-02-24T13:15:14.127Z,14.35
2019-02-24T13:16:17.130Z,14.41
2019-02-24T13:17:19.810Z,15.23
2019-02-24T13:18:26.869Z,14.47
2019-02-24T13:21:05.219Z,14.47
2019-02-24T13:22:09.882Z,13.94
2019-02-24T13:23:13.053Z,13.94
2019-02-24T13:24:16.065Z,13.94
2019-02-24T13:25:19.137Z,13.63
2019-02-24T13:26:22.493Z,13.71
2019-02-24T13:27:25.643Z,13.71
2019-02-24T13:28:33.022Z,13.76
2019-02-24T13:29:39.532Z,13.51
2019-02-24T13:30:42.275Z,13.21
2019-02-24T13:31:45.582Z,13.49
2019-02-24T13:32:49.957Z,13.41
2019-02-24T13:33:53.254Z,13.41
2019-02-24T13:34:56.326Z,13.19
2019-02-24T13:36:02.370Z,13.65
2019-02-24T13:37:08.079Z,13.53
2019-02-24T13:38:10.920Z,13.53
2019-02-24T13:39:13.882Z,13.56
2019-02-24T13:40:20.408Z,13.13
2019-02-24T13:41:34.815Z,13.61
2019-02-24T13:42:41.679Z,13.09
2019-02-24T13:46:56.374Z,12.62
2019-02-24T13:48:04.535Z,12.62
2019-02-24T13:49:07.201Z,13.40
2019-02-24T13:50:09.956Z,13.45
2019-02-24T13:51:14.920Z,13.45
2019-02-24T13:52:17.997Z,13.20
2019-02-24T13:53:23.129Z,13.84
2019-02-24T13:54:26.058Z,13.12
2019-02-24T13:55:31.878Z,13.46
2019-02-24T13:56:36.698Z,13.46
2019-02-24T13:57:42.404Z,13.43
2019-02-24T13:58:48.019Z,13.88
2019-02-24T13:59:50.888Z,13.58
2019-02-24T14:02:36.571Z,13.58
2019-02-24T14:04:17.516Z,13.74
2019-02-24T14:07:32.328Z,13.07
2019-02-24T14:08:41.212Z,13.36
2019-02-24T14:09:52.680Z,13.36
2019-02-24T14:11:13.374Z,12.74
2019-02-24T14:12:22.484Z,13.05
2019-02-24T14:13:31.375Z,13.05
2019-02-24T14:15:05.813Z,12.92
2019-02-24T14:16:08.868Z,13.18
2019-02-24T14:17:11.834Z,13.19
2019-02-24T14:18:15.675Z,13.61
2019-02-24T14:19:18.624Z,12.88
2019-02-24T14:20:29.379Z,13.19
2019-02-24T14:21:32.263Z,13.02
2019-02-24T14:22:35.530Z,12.52
2019-02-24T14:23:41.018Z,12.39
2019-02-24T14:24:55.887Z,12.57
2019-02-24T14:28:08.256Z,12.39
2019-02-24T14:29:10.009Z,12.67
2019-02-24T14:30:17.577Z,12.61
2019-02-24T14:31:27.337Z,12.61
2019-02-24T14:32:33.147Z,12.51
2019-02-24T14:33:39.312Z,12.78
2019-02-24T14:34:44.970Z,12.78
2019-02-24T14:35:51.728Z,12.72
2019-02-24T14:37:21.590Z,100.00
2019-02-24T14:38:26.771Z,100.00
2019-02-24T14:39:30.138Z,0.00
2019-02-24T14:40:35.586Z,12.02
2019-02-24T14:41:38.914Z,11.75
2019-02-24T14:42:49.418Z,11.75
2019-02-24T14:43:55.090Z,100.00
2019-02-24T14:44:58.313Z,0.00
2019-02-24T14:46:01.423Z,11.93
2019-02-24T14:49:12.674Z,12.18
2019-02-24T14:50:16.107Z,12.18
2019-02-24T14:53:15.327Z,12.32
2019-02-24T14:54:37.277Z,12.49
2019-02-24T14:55:36.634Z,12.96
2019-02-24T14:56:48.118Z,12.71
2019-02-24T14:57:54.183Z,13.09
2019-02-24T14:58:59.201Z,13.35
2019-02-24T15:00:05.386Z,12.41
2019-02-24T15:01:08.232Z,12.41
2019-02-24T15:02:13.662Z,12.99
2019-02-24T15:03:17.727Z,13.03
2019-02-24T15:04:26.571Z,13.02
2019-02-24T15:05:32.444Z,12.98
2019-02-24T15:06:39.555Z,12.79
2019-02-24T15:07:48.227Z,13.06
2019-02-24T15:08:52.238Z,13.03
2019-02-24T15:09:55.229Z,13.03
2019-02-24T15:10:58.803Z,13.07
2019-02-24T15:12:06.593Z,13.20
2019-02-24T15:13:09.595Z,13.17
2019-02-24T15:14:13.153Z,13.60
2019-02-24T15:15:20.367Z,14.14
2019-02-24T15:16:26.208Z,13.87
2019-02-24T15:17:33.575Z,13.48
2019-02-24T15:18:48.969Z,13.36
2019-02-24T15:19:57.436Z,13.36
2019-02-24T15:21:02.208Z,13.50
2019-02-24T15:22:07.601Z,13.47
2019-02-24T15:23:11.455Z,13.60
2019-02-24T15:24:17.110Z,13.60
2019-02-24T15:25:21.482Z,13.79
2019-02-24T15:26:24.622Z,13.33
2019-02-24T15:27:42.874Z,13.56
2019-02-24T15:28:48.462Z,13.48
2019-02-24T15:30:00.385Z,13.57
2019-02-24T15:31:08.161Z,13.68
2019-02-24T15:32:11.834Z,13.67
2019-02-24T15:33:15.469Z,13.67
2019-02-24T15:34:24.811Z,13.50
2019-02-24T15:35:27.867Z,12.71
2019-02-24T15:36:31.109Z,12.71
2019-02-24T15:37:37.014Z,13.41
2019-02-24T15:38:41.892Z,13.11
2019-02-24T15:39:44.499Z,13.11
2019-02-24T15:40:54.797Z,12.30
2019-02-24T15:41:59.519Z,12.34
2019-02-24T15:43:03.420Z,12.18
2019-02-24T15:44:07.305Z,11.82
2019-02-24T15:45:10.770Z,11.37
2019-02-24T15:46:13.865Z,11.37
2019-02-24T15:47:19.776Z,11.21
2019-02-24T15:48:28.518Z,12.33
2019-02-24T15:49:39.590Z,11.94
2019-02-24T15:50:43.761Z,11.94
2019-02-24T15:51:46.705Z,12.49
2019-02-24T15:52:50.184Z,12.49
2019-02-24T15:54:12.626Z,12.13
2019-02-24T15:55:15.484Z,12.13
2019-02-24T15:56:24.104Z,12.53
2019-02-24T15:59:00.712Z,12.55
2019-02-24T16:00:07.863Z,12.77
2019-02-24T16:01:14.677Z,12.92
2019-02-24T16:02:38.595Z,12.92
2019-02-24T16:03:44.275Z,12.78
2019-02-24T16:06:44.032Z,12.66
2019-02-24T16:09:08.339Z,12.88
2019-02-24T16:10:15.114Z,12.35
2019-02-24T16:11:25.288Z,12.56
2019-02-24T16:12:46.999Z,12.56
2019-02-24T16:14:00.195Z,12.71
2019-02-24T16:15:05.166Z,13.48
2019-02-24T16:16:25.406Z,13.48
2019-02-24T16:17:28.403Z,13.69
2019-02-24T16:18:32.502Z,13.41
2019-02-24T16:19:57.347Z,13.41
2019-02-24T16:21:11.809Z,13.00
2019-02-24T16:22:13.198Z,13.48
2019-02-24T16:23:25.496Z,13.40
2019-02-24T16:24:29.421Z,13.40
2019-02-24T16:25:33.120Z,13.10
2019-02-24T16:26:51.801Z,13.77
2019-02-24T16:27:57.000Z,13.22
2019-02-24T16:28:59.780Z,13.54
2019-02-24T16:30:02.433Z,13.57
2019-02-24T16:31:13.093Z,13.51
2019-02-24T16:32:17.944Z,13.62
2019-02-24T16:33:25.106Z,13.70
2019-02-24T16:34:27.777Z,13.29
2019-02-24T16:35:30.719Z,13.34
2019-02-24T16:36:37.993Z,13.34
2019-02-24T16:37:40.725Z,13.54
2019-02-24T16:38:44.042Z,13.61
2019-02-24T16:39:57.492Z,13.89
2019-02-24T16:41:00.421Z,13.73
2019-02-24T16:42:13.283Z,13.68
2019-02-24T16:43:19.796Z,13.68
2019-02-24T16:44:25.453Z,14.98
2019-02-24T16:45:33.146Z,15.33
2019-02-24T16:46:37.244Z,15.18
2019-02-24T16:47:47.159Z,14.99
2019-02-24T16:48:51.472Z,15.54
2019-02-24T16:49:57.235Z,15.54
2019-02-24T16:51:00.009Z,14.31
2019-02-24T16:52:03.059Z,14.17
2019-02-24T16:53:05.783Z,14.34
2019-02-24T16:54:13.916Z,14.12
2019-02-24T16:55:16.744Z,15.02
2019-02-24T16:56:23.365Z,15.02
2019-02-24T16:57:27.330Z,15.46
2019-02-24T16:58:30.257Z,15.64
2019-02-24T16:59:33.416Z,15.64
2019-02-24T17:00:36.643Z,15.45
2019-02-24T17:01:39.825Z,15.51
2019-02-24T17:02:46.375Z,15.54
2019-02-24T17:03:53.205Z,15.54
2019-02-24T17:05:06.183Z,16.10
2019-02-24T17:06:12.472Z,16.42
2019-02-24T17:07:16.300Z,16.46
2019-02-24T17:08:19.140Z,16.46